^^
Meteo Knjazevac Station Historical Data
Daily Summary for June 26, 2022 Units:  English    Metric   Both
Daily Weekly Monthly Yearly Custom
  High: Low: Average:
Temperature: 65.8 °F 60.1 °F 63.6 °F
Dew Point: 65.6 °F 59.8 °F 63.3 °F
Humidity: 99% 98% 99%
Wind Speed: 5mph 0mph 1.8mph
Wind Gust: 12mph - -
Wind- - South
Pressure: 30.06 in 30.02 in -
Precipitation: 0.01 in    
Historical Graphs
 
 
Tabular Data for June 26, 2022
Time Temperature Dew Point Pressure Wind Wind Speed Wind Gust Humidity Rainfall Rate (Hourly) solar Conditions
00:00 65.8 °F 65.3 °F 30.04 in ESE 2 mph 7 mph 98% 0.00 in 0 W/m2
00:10 65.8 °F 65.6 °F 30.04 in SE 3 mph 8 mph 99% 0.01 in 0 W/m2
00:20 65.5 °F 65.2 °F 30.04 in ESE 5 mph 11 mph 99% 0.00 in 0 W/m2
00:30 65.5 °F 65.2 °F 30.04 in ESE 2 mph 10 mph 99% 0.00 in 0 W/m2
00:50 65.3 °F 65 °F 30.04 in SSE 2 mph 6 mph 99% 0.00 in 0 W/m2
01:00 65.3 °F 65 °F 30.04 in SE 2 mph 6 mph 99% 0.00 in 0 W/m2
01:10 65.3 °F 65 °F 30.03 in SE 5 mph 12 mph 99% 0.00 in 0 W/m2
01:20 65.3 °F 65 °F 30.02 in SSE 3 mph 9 mph 99% 0.00 in 0 W/m2
01:30 65.1 °F 64.8 °F 30.02 in South 1 mph 7 mph 99% 0.00 in 0 W/m2
01:40 65.1 °F 64.8 °F 30.03 in WNW 1 mph 5 mph 99% 0.00 in 0 W/m2
01:50 65.1 °F 64.8 °F 30.03 in NE 3 mph 6 mph 99% 0.00 in 0 W/m2
02:00 65.1 °F 64.5 °F 30.03 in SE 3 mph 7 mph 98% 0.00 in 0 W/m2
02:10 65.1 °F 64.5 °F 30.03 in SSE 1 mph 5 mph 98% 0.00 in 0 W/m2
02:20 64.9 °F 64.4 °F 30.03 in SSW 2 mph 5 mph 98% 0.00 in 0 W/m2
02:30 64.6 °F 64 °F 30.04 in SW 1 mph 3 mph 98% 0.00 in 0 W/m2
02:40 64.2 °F 63.6 °F 30.04 in West 1 mph 3 mph 98% 0.00 in 0 W/m2
02:50 64 °F 63.5 °F 30.04 in WSW 1 mph 2 mph 98% 0.00 in 0 W/m2
03:00 63.7 °F 63.4 °F 30.04 in WSW 3 mph 5 mph 99% 0.00 in 0 W/m2
03:10 63.1 °F 62.9 °F 30.04 in West 3 mph 7 mph 99% 0.00 in 0 W/m2
03:20 62.8 °F 62.5 °F 30.04 in West 2 mph 6 mph 99% 0.00 in 0 W/m2
03:30 62.4 °F 62.1 °F 30.05 in South 1 mph 4 mph 99% 0.00 in 0 W/m2
03:40 62.2 °F 62 °F 30.05 in WSW 2 mph 3 mph 99% 0.00 in 0 W/m2
03:50 61.9 °F 61.6 °F 30.05 in Calm   3 mph 99% 0.00 in 0 W/m2
04:00 61.5 °F 61.2 °F 30.06 in NW 1 mph 2 mph 99% 0.00 in 0 W/m2
04:10 61.2 °F 60.9 °F 30.05 in North 1 mph 2 mph 99% 0.00 in 0 W/m2
04:20 61 °F 60.7 °F 30.06 in NNE 1 mph 2 mph 99% 0.00 in 0 W/m2
04:30 61 °F 60.7 °F 30.06 in NNE 1 mph 3 mph 99% 0.00 in 0 W/m2
04:40 60.6 °F 60.3 °F 30.06 in Calm   3 mph 99% 0.00 in 0 W/m2
04:50 60.3 °F 60 °F 30.06 in Calm   2 mph 99% 0.00 in 0 W/m2
05:10 60.1 °F 59.8 °F 30.06 in Calm   3 mph 99% 0.00 in 12 W/m2
Knjazevac, Serbia
Compliments of Weather Underground - 2 mb